< Cyclone 199711 1997 Season Cyclone 199713 >
Cyclone 199712 (JUSTIN)
General InformationTrack Information on Google MapsDetailed Wind InformationList of All Images || ResourceGoogle EarthGE AnimationAtom FeedGeoJSON
Detalied Best Track (Time Zone = UTC)
Year Month Day Hour Lat. Long. Pressure (hPa) Wind (kt) Class Image Chart
1997 3 6 18 -16.9 153.5 990 45 3 Image --
1997 3 7 00 -16.5 152.7 987 45 3 Image --
1997 3 7 06 -16.4 152.5 981 45 3 Image --
1997 3 7 12 -16.4 152.5 981 45 3 Image --
1997 3 7 18 -16.6 151.9 977 51 4 Image --
1997 3 8 00 -16.6 151.9 980 51 4 Image --
1997 3 8 06 -16.9 151.9 978 51 4 Image --
1997 3 8 12 -17.2 151.9 976 51 4 Image --
1997 3 8 18 -17.1 151.3 975 51 4 Image --
1997 3 9 00 -17.4 151.2 974 60 4 Image --
1997 3 9 06 -17.2 151.2 975 60 4 Image --
1997 3 9 12 -16.9 151.3 975 60 4 Image --
1997 3 9 18 -16.7 151.4 976 60 4 Image --
1997 3 10 00 -16.5 151.5 977 60 4 Image --
1997 3 10 06 -16.5 151.6 978 60 4 Image --
1997 3 10 12 -16.6 151.7 980 60 4 Image --
1997 3 10 18 -16.6 151.8 980 60 4 Image --
1997 3 11 00 -16.6 151.8 980 51 4 Image --
1997 3 11 06 -16.5 151.9 982 51 4 Image --
1997 3 11 12 -16.4 151.9 984 51 4 Image --
1997 3 11 18 -16.1 151.8 985 51 4 Image --
1997 3 12 00 -16.0 151.8 987 45 3 Image --
1997 3 12 06 -16.0 151.8 990 35 3 Image --
1997 3 12 12 -15.7 151.9 990 41 3 Image --
1997 3 12 18 -15.4 152.0 990 41 3 Image --
1997 3 13 00 -15.2 152.2 990 41 3 Image --
1997 3 13 06 -14.8 152.5 985 41 3 Image --
1997 3 13 12 -14.1 152.3 985 35 3 Image --
1997 3 13 18 -13.5 152.2 985 35 3 Image --
1997 3 14 00 -12.9 152.2 980 41 3 Image --
1997 3 14 06 -12.5 152.6 980 45 3 Image --
1997 3 14 12 -12.2 153.2 980 45 3 Image --
1997 3 14 18 -11.9 153.7 980 45 3 Image --
1997 3 15 00 -11.6 154.2 980 45 3 Image --
1997 3 15 06 -11.2 154.6 980 45 3 Image --
1997 3 15 12 -11.5 155.1 980 45 3 Image --
1997 3 15 18 -11.8 156.0 980 45 3 Image --
1997 3 16 00 -12.1 156.0 980 45 3 Image --
1997 3 16 06 -12.2 155.9 975 45 3 Image --
1997 3 16 12 -12.4 155.9 970 51 4 Image --
1997 3 16 18 -12.9 155.7 970 64 5 Image --
1997 3 17 00 -12.3 155.5 965 64 5 Image --
1997 3 17 06 -12.4 155.5 960 64 5 Image --
1997 3 17 12 -12.9 155.1 955 70 5 Image --
1997 3 17 18 -12.2 154.8 955 82 5 Image --
1997 3 18 00 -11.8 155.4 955 82 5 Image --
1997 3 18 06 -11.8 155.2 955 82 5 Image --
1997 3 18 12 -11.9 154.7 955 82 5 Image --
1997 3 18 18 -12.1 154.3 960 82 5 Image --
1997 3 19 00 -12.3 154.0 965 82 5 Image --
1997 3 19 06 -12.4 153.6 970 70 5 Image --
1997 3 19 12 -13.0 152.7 980 60 4 Image --
1997 3 19 18 -13.5 152.1 980 70 5 Image --
1997 3 20 00 -14.0 151.4 985 54 4 Image --
1997 3 20 06 -14.5 150.6 985 51 4 Image --
1997 3 20 12 -14.8 149.7 990 45 3 Image --
1997 3 20 18 -15.1 148.9 992 45 3 Image --
1997 3 21 00 -15.3 148.1 995 45 3 Image --
1997 3 21 06 -15.5 147.3 995 45 3 Image --
1997 3 21 12 -15.9 147.1 997 45 3 Image --
1997 3 21 18 -16.4 146.7 995 49 4 Image --
1997 3 22 00 -16.6 146.0 993 51 4 Image --
1997 3 22 06 -16.8 145.3 995 41 3 Image --
1997 3 22 12 -16.9 145.0 999 41 3 Image --
1997 3 22 18 -17.3 144.8 1000 41 3 Image --
1997 3 23 00 -17.5 144.9 1002 41 3 Image --
1997 3 23 06 -18.0 145.5 1000 35 3 Image --
1997 3 23 12 -18.5 145.9 999 45 3 Image --
1997 3 23 18 -18.9 146.7 999 45 3 Image --
1997 3 23 23 -19.1 147.3 1004 41 3 Image --
< Cyclone 199711 1997 Season Cyclone 199713 >

Help